createdAt,value
2023-02-07T00:00:44.354Z,-2.98
2023-02-07T00:30:41.795Z,-2.98
2023-02-07T00:31:41.726Z,-2.98
2023-02-07T00:32:42.010Z,-2.97
2023-02-07T00:33:43.464Z,-2.96
2023-02-07T00:34:42.628Z,-3.01
2023-02-07T00:35:43.569Z,-3
2023-02-07T00:36:43.581Z,-3
2023-02-07T00:37:43.894Z,-3.01
2023-02-07T00:38:45.338Z,-2.99
2023-02-07T00:39:44.706Z,-2.99
2023-02-07T00:40:45.128Z,-3.02
2023-02-07T00:41:45.960Z,-3
2023-02-07T00:42:45.963Z,-3.02
2023-02-07T00:43:47.516Z,-2.99
2023-02-07T00:44:46.981Z,-2.99
2023-02-07T00:45:47.228Z,-3.02
2023-02-07T00:46:47.632Z,-3.05
2023-02-07T00:47:48.065Z,-3.04
2023-02-07T00:48:48.371Z,-3.06
2023-02-07T00:49:49.089Z,-3.04
2023-02-07T00:50:49.298Z,-3.03
2023-02-07T00:51:49.715Z,-3.02
2023-02-07T00:52:50.027Z,-3
2023-02-07T00:53:50.441Z,-3.01
2023-02-07T00:54:50.958Z,-3
2023-02-07T00:55:51.497Z,-3.01
2023-02-07T00:56:51.889Z,-3.05
2023-02-07T00:57:52.142Z,-3.09
2023-02-07T00:58:52.941Z,-3.1
2023-02-07T00:59:53.039Z,-3.1
2023-02-07T01:00:53.852Z,-3.06
2023-02-07T01:01:53.771Z,-3.07
2023-02-07T01:02:54.707Z,-3.04
2023-02-07T01:03:58.495Z,-3.05
2023-02-07T01:04:56.010Z,-3.06
2023-02-07T01:05:56.770Z,-3.07
2023-02-07T01:06:56.956Z,-3.04
2023-02-07T01:07:57.209Z,-3.04
2023-02-07T01:09:01.417Z,-3.04
2023-02-07T01:09:58.738Z,-3.06
2023-02-07T01:11:03.984Z,-3.1
2023-02-07T01:12:01.412Z,-3.09
2023-02-07T01:13:02.061Z,-3.08
2023-02-07T01:14:03.290Z,-3.09
2023-02-07T01:15:02.777Z,-3.09
2023-02-07T01:16:05.989Z,-3.05
2023-02-07T01:17:04.739Z,-3.04
2023-02-07T01:18:07.503Z,-3.08
2023-02-07T01:19:08.335Z,-3.06
2023-02-07T01:20:06.298Z,-3.06
2023-02-07T01:21:17.990Z,-3.08
2023-02-07T01:22:10.498Z,-3.07
2023-02-07T01:23:11.325Z,-3.07
2023-02-07T01:24:11.231Z,-3.06
2023-02-07T01:25:11.637Z,-3.07
2023-02-07T01:26:11.879Z,-3.04
2023-02-07T01:27:12.483Z,-3.01
2023-02-07T01:28:14.579Z,-2.99
2023-02-07T01:29:14.754Z,-3.06
2023-02-07T01:30:14.032Z,-3.08
2023-02-07T01:31:13.963Z,-3.08
2023-02-07T01:32:15.072Z,-3.06
2023-02-07T01:33:14.601Z,-3.09
2023-02-07T01:34:14.887Z,-3.11
2023-02-07T01:35:15.296Z,-3.09
2023-02-07T01:36:16.523Z,-3.06
2023-02-07T01:37:16.358Z,-3.06
2023-02-07T01:38:16.566Z,-3.07
2023-02-07T01:39:16.863Z,-3.1
2023-02-07T01:40:17.387Z,-3.09
2023-02-07T01:41:17.685Z,-3.06
2023-02-07T01:42:18.737Z,-3.07
2023-02-07T01:43:23.011Z,-3.04
2023-02-07T01:46:27.653Z,-3.08
2023-02-07T01:47:27.270Z,-3.07
2023-02-07T01:48:34.838Z,-3.04
2023-02-07T01:49:35.750Z,-3.06
2023-02-07T01:50:33.843Z,-3.06
2023-02-07T01:51:37.326Z,-3.06
2023-02-07T01:52:39.990Z,-3.07
2023-02-07T01:53:38.862Z,-3.07
2023-02-07T01:54:38.277Z,-3.07
2023-02-07T01:55:39.991Z,-3.09
2023-02-07T01:56:43.940Z,-3.05
2023-02-07T01:57:42.187Z,-3.04
2023-02-07T01:58:41.754Z,-3.03
2023-02-07T01:59:44.000Z,-3.05
2023-02-07T02:00:42.413Z,-3.06
2023-02-07T02:01:44.548Z,-3.08
2023-02-07T02:02:44.228Z,-3.08
2023-02-07T02:03:47.127Z,-3.06
2023-02-07T02:04:45.297Z,-3.07
2023-02-07T02:05:46.427Z,-3.04
2023-02-07T02:06:46.536Z,-3.04
2023-02-07T02:07:45.832Z,-3.01
2023-02-07T02:08:46.497Z,-3.03
2023-02-07T02:09:46.560Z,-3.04
2023-02-07T02:46:16.430Z,-3.16
2023-02-07T02:47:11.281Z,-3.19
2023-02-07T02:48:11.485Z,-3.17
2023-02-07T02:49:13.545Z,-3.2
2023-02-07T02:50:20.114Z,-3.21
2023-02-07T02:51:13.038Z,-3.23
2023-02-07T02:52:13.255Z,-3.2
2023-02-07T02:53:14.387Z,-3.21
2023-02-07T02:55:18.805Z,-3.26
2023-02-07T03:02:46.601Z,-3.27
2023-02-07T03:17:25.814Z,-3.26
2023-02-07T03:22:36.918Z,-3.22
2023-02-07T03:23:36.703Z,-3.22
2023-02-07T03:24:37.637Z,-3.2
2023-02-07T03:25:39.191Z,-3.17
2023-02-07T03:26:38.583Z,-3.13
2023-02-07T03:27:39.088Z,-3.14
2023-02-07T03:28:41.449Z,-3.13
2023-02-07T03:29:42.483Z,-3.14
2023-02-07T03:30:42.313Z,-3.16
2023-02-07T03:31:43.656Z,-3.16
2023-02-07T03:32:44.245Z,-3.11
2023-02-07T03:33:43.599Z,-3.14
2023-02-07T03:34:50.300Z,-3.21
2023-02-07T03:37:52.162Z,-3.25
2023-02-07T03:38:49.909Z,-3.23
2023-02-07T03:39:50.632Z,-3.19
2023-02-07T03:40:58.431Z,-3.19
2023-02-07T03:41:59.662Z,-3.22
2023-02-07T03:44:00.504Z,-3.23
2023-02-07T03:44:59.677Z,-3.16
2023-02-07T03:45:58.667Z,-3.19
2023-02-07T03:46:59.997Z,-3.25
2023-02-07T03:47:59.093Z,-3.24
2023-02-07T03:48:59.506Z,-3.26
2023-02-07T03:49:59.816Z,-3.25
2023-02-07T03:51:00.342Z,-3.29
2023-02-07T03:52:00.860Z,-3.29
2023-02-07T03:53:00.963Z,-3.28
2023-02-07T03:54:01.479Z,-3.3
2023-02-07T03:55:01.815Z,-3.29
2023-02-07T03:56:02.222Z,-3.29
2023-02-07T03:57:02.527Z,-3.32
2023-02-07T03:58:02.838Z,-3.28
2023-02-07T03:59:03.773Z,-3.3
2023-02-07T04:00:04.793Z,-3.31
2023-02-07T04:01:04.590Z,-3.38
2023-02-07T04:02:04.463Z,-3.36
2023-02-07T04:03:05.337Z,-3.34
2023-02-07T04:04:05.342Z,-3.35
2023-02-07T04:05:06.367Z,-3.35
2023-02-07T04:06:06.482Z,-3.33
2023-02-07T04:07:06.823Z,-3.35
2023-02-07T04:08:07.119Z,-3.38
2023-02-07T04:09:08.750Z,-3.43
2023-02-07T04:10:08.149Z,-3.45
2023-02-07T04:11:08.150Z,-3.43
2023-02-07T04:12:08.655Z,-3.41
2023-02-07T04:13:09.097Z,-3.4
2023-02-07T04:14:09.517Z,-3.39
2023-02-07T04:15:10.329Z,-3.41
2023-02-07T04:16:10.245Z,-3.36
2023-02-07T04:17:10.754Z,-3.37
2023-02-07T04:18:11.181Z,-3.36
2023-02-07T04:19:11.492Z,-3.35
2023-02-07T04:20:12.824Z,-3.33
2023-02-07T04:21:12.210Z,-3.32
2023-02-07T04:22:12.631Z,-3.28
2023-02-07T04:23:13.576Z,-3.33
2023-02-07T04:24:16.532Z,-3.37
2023-02-07T04:25:13.984Z,-3.37
2023-02-07T04:26:17.169Z,-3.37
2023-02-07T04:27:16.143Z,-3.32
2023-02-07T04:28:15.079Z,-3.3
2023-02-07T04:29:15.445Z,-3.33
2023-02-07T04:30:16.470Z,-3.34
2023-02-07T04:31:16.466Z,-3.35
2023-02-07T04:32:16.695Z,-3.37
2023-02-07T04:33:17.110Z,-3.33
2023-02-07T04:34:17.432Z,-3.32
2023-02-07T04:35:18.246Z,-3.36
2023-02-07T04:36:18.556Z,-3.43
2023-02-07T04:37:18.782Z,-3.45
2023-02-07T04:38:19.083Z,-3.48
2023-02-07T04:39:19.914Z,-3.51
2023-02-07T04:40:20.538Z,-3.54
2023-02-07T04:41:20.456Z,-3.54
2023-02-07T04:42:20.769Z,-3.5
2023-02-07T04:43:21.364Z,-3.54
2023-02-07T04:44:21.788Z,-3.56
2023-02-07T04:45:22.211Z,-3.52
2023-02-07T04:46:22.429Z,-3.5
2023-02-07T04:47:24.056Z,-3.53
2023-02-07T04:48:23.560Z,-3.54
2023-02-07T04:49:23.680Z,-3.52
2023-02-07T04:50:24.188Z,-3.53
2023-02-07T04:51:24.594Z,-3.52
2023-02-07T04:52:24.918Z,-3.5
2023-02-07T04:53:26.059Z,-3.49
2023-02-07T04:54:26.050Z,-3.54
2023-02-07T04:55:26.265Z,-3.54
2023-02-07T04:56:26.588Z,-3.56
2023-02-07T04:57:27.107Z,-3.53
2023-02-07T04:58:27.617Z,-3.52
2023-02-07T04:59:27.831Z,-3.54
2023-02-07T05:00:28.449Z,-3.54
2023-02-07T05:01:28.733Z,-3.57
2023-02-07T05:02:29.174Z,-3.54
2023-02-07T05:03:29.474Z,-3.56
2023-02-07T05:04:29.943Z,-3.55
2023-02-07T05:05:30.326Z,-3.57
2023-02-07T05:06:30.649Z,-3.52
2023-02-07T05:07:31.164Z,-3.53
2023-02-07T05:08:31.577Z,-3.52
2023-02-07T05:09:31.884Z,-3.48
2023-02-07T05:10:32.730Z,-3.48
2023-02-07T05:11:32.731Z,-3.51
2023-02-07T05:12:33.255Z,-3.55
2023-02-07T05:13:35.193Z,-3.59
2023-02-07T05:14:33.982Z,-3.58
2023-02-07T05:15:34.596Z,-3.58
2023-02-07T05:16:35.038Z,-3.55
2023-02-07T05:17:35.533Z,-3.56
2023-02-07T05:18:35.645Z,-3.54
2023-02-07T05:19:36.157Z,-3.57
2023-02-07T05:20:36.578Z,-3.52
2023-02-07T05:21:36.991Z,-3.54
2023-02-07T05:22:37.414Z,-3.54
2023-02-07T05:23:37.726Z,-3.56
2023-02-07T05:24:41.110Z,-3.56
2023-02-07T05:25:47.269Z,-3.52
2023-02-07T05:26:40.488Z,-3.47
2023-02-07T05:27:40.103Z,-3.46
2023-02-07T05:28:40.319Z,-3.38
2023-02-07T05:29:40.823Z,-3.42
2023-02-07T05:30:41.285Z,-3.43
2023-02-07T05:31:41.812Z,-3.39
2023-02-07T05:32:41.961Z,-3.34
2023-02-07T05:33:42.613Z,-3.38
2023-02-07T05:34:43.934Z,-3.36
2023-02-07T05:35:46.399Z,-3.3
2023-02-07T05:36:43.834Z,-3.24
2023-02-07T05:37:44.063Z,-3.25
2023-02-07T05:38:44.365Z,-3.29
2023-02-07T05:39:44.797Z,-3.33
2023-02-07T05:40:45.806Z,-3.38
2023-02-07T05:41:46.256Z,-3.42
2023-02-07T05:42:45.796Z,-3.41
2023-02-07T05:43:46.599Z,-3.44
2023-02-07T05:44:46.944Z,-3.43
2023-02-07T05:45:47.274Z,-3.37
2023-02-07T05:46:47.706Z,-3.34
2023-02-07T05:47:48.836Z,-3.33
2023-02-07T05:48:48.125Z,-3.32
2023-02-07T05:49:48.649Z,-3.32
2023-02-07T05:50:49.270Z,-3.31
2023-02-07T05:51:49.583Z,-3.3
2023-02-07T05:52:50.010Z,-3.3
2023-02-07T05:53:50.214Z,-3.34
2023-02-07T05:54:50.535Z,-3.36
2023-02-07T05:55:54.010Z,-3.33
2023-02-07T05:56:51.353Z,-3.3
2023-02-07T05:57:51.667Z,-3.24
2023-02-07T05:58:52.096Z,-3.3
2023-02-07T05:59:52.209Z,-3.32
2023-02-07T06:00:52.517Z,-3.29
2023-02-07T06:01:52.925Z,-3.29
2023-02-07T06:02:53.539Z,-3.31
2023-02-07T06:03:53.795Z,-3.3
2023-02-07T06:04:54.085Z,-3.32
2023-02-07T06:05:54.512Z,-3.34
2023-02-07T06:06:54.701Z,-3.34
2023-02-07T06:07:55.115Z,-3.32
2023-02-07T06:08:55.542Z,-3.37
2023-02-07T06:09:55.747Z,-3.35
2023-02-07T06:10:56.152Z,-3.32
2023-02-07T06:11:56.570Z,-3.37
2023-02-07T06:12:56.784Z,-3.36
2023-02-07T06:13:57.001Z,-3.38
2023-02-07T06:14:57.520Z,-3.36
2023-02-07T06:15:57.798Z,-3.31
2023-02-07T06:16:58.148Z,-3.33
2023-02-07T06:17:58.454Z,-3.34
2023-02-07T06:18:58.561Z,-3.34
2023-02-07T06:19:58.893Z,-3.35
2023-02-07T06:20:59.407Z,-3.31
2023-02-07T06:21:59.815Z,-3.24
2023-02-07T06:22:59.836Z,-3.21
2023-02-07T06:24:00.132Z,-3.28
2023-02-07T06:25:00.574Z,-3.29
2023-02-07T06:26:00.968Z,-3.29
2023-02-07T06:27:01.299Z,-3.25
2023-02-07T06:28:01.702Z,-3.23
2023-02-07T06:29:01.918Z,-3.19
2023-02-07T06:30:02.141Z,-3.23
2023-02-07T06:31:02.507Z,-3.22
2023-02-07T06:32:02.950Z,-3.32
2023-02-07T06:33:03.193Z,-3.31
2023-02-07T06:34:03.703Z,-3.26
2023-02-07T06:35:04.826Z,-3.29
2023-02-07T06:36:04.940Z,-3.3
2023-02-07T06:37:04.537Z,-3.31
2023-02-07T06:38:04.743Z,-3.32
2023-02-07T06:39:05.260Z,-3.35
2023-02-07T06:40:06.363Z,-3.32
2023-02-07T06:41:05.786Z,-3.31
2023-02-07T06:42:06.723Z,-3.27
2023-02-07T06:43:08.921Z,-3.28
2023-02-07T06:44:06.830Z,-3.32
2023-02-07T06:45:08.980Z,-3.29
2023-02-07T06:46:07.698Z,-3.29
2023-02-07T06:47:08.074Z,-3.32
2023-02-07T06:48:09.612Z,-3.29
2023-02-07T06:49:08.423Z,-3.31
2023-02-07T06:50:09.530Z,-3.32
2023-02-07T06:51:09.248Z,-3.36
2023-02-07T06:52:09.450Z,-3.32
2023-02-07T06:53:09.757Z,-3.25
2023-02-07T06:54:10.078Z,-3.24
2023-02-07T06:55:10.294Z,-3.21
2023-02-07T06:56:10.710Z,-3.22
2023-02-07T06:57:11.218Z,-3.23
2023-02-07T06:58:11.521Z,-3.16
2023-02-07T06:59:11.671Z,-3.16
2023-02-07T07:00:12.829Z,-3.15
2023-02-07T07:01:12.577Z,-3.14
2023-02-07T07:02:13.107Z,-3.13
2023-02-07T07:03:17.512Z,-3.1
2023-02-07T07:04:14.872Z,-3.09
2023-02-07T07:05:16.473Z,-3.09
2023-02-07T07:06:15.584Z,-3.04
2023-02-07T07:07:15.900Z,-3.11
2023-02-07T07:08:16.210Z,-3.11
2023-02-07T07:09:16.553Z,-3.02
2023-02-07T07:10:16.996Z,-2.98
2023-02-07T07:11:17.245Z,-2.99
2023-02-07T07:12:17.570Z,-3
2023-02-07T07:13:17.782Z,-2.96
2023-02-07T07:14:18.398Z,-2.96
2023-02-07T07:15:21.383Z,-3.02
2023-02-07T07:16:19.672Z,-3.06
2023-02-07T07:17:19.146Z,-2.96
2023-02-07T07:18:19.467Z,-2.9
2023-02-07T07:19:19.676Z,-2.88
2023-02-07T07:20:20.183Z,-2.86
2023-02-07T07:21:20.361Z,-2.85
2023-02-07T07:22:21.256Z,-2.85
2023-02-07T07:23:21.137Z,-2.84
2023-02-07T07:24:21.746Z,-2.85
2023-02-07T07:25:21.551Z,-2.71
2023-02-07T07:26:21.969Z,-2.74
2023-02-07T07:27:22.272Z,-2.81
2023-02-07T07:28:22.532Z,-2.77
2023-02-07T07:29:23.311Z,-2.67
2023-02-07T07:30:23.528Z,-2.65
2023-02-07T07:31:24.820Z,-2.59
2023-02-07T07:32:33.594Z,-2.53
2023-02-07T07:33:26.525Z,-2.51
2023-02-07T07:34:26.726Z,-2.49
2023-02-07T07:35:27.343Z,-2.58
2023-02-07T07:36:27.581Z,-2.54
2023-02-07T07:37:27.975Z,-2.49
2023-02-07T07:38:28.270Z,-2.55
2023-02-07T07:39:28.601Z,-2.66
2023-02-07T07:40:28.952Z,-2.72
2023-02-07T07:41:29.115Z,-2.64
2023-02-07T07:42:29.655Z,-2.55
2023-02-07T07:43:29.668Z,-2.5
2023-02-07T07:44:30.169Z,-2.54
2023-02-07T07:45:30.376Z,-2.6
2023-02-07T07:46:30.882Z,-2.53
2023-02-07T07:47:31.311Z,-2.46
2023-02-07T07:48:31.919Z,-2.44
2023-02-07T07:49:31.854Z,-2.38
2023-02-07T07:50:31.959Z,-2.37
2023-02-07T07:51:32.787Z,-2.3
2023-02-07T07:52:32.891Z,-2.36
2023-02-07T07:53:33.610Z,-2.43
2023-02-07T07:54:33.412Z,-2.33
2023-02-07T07:55:33.824Z,-2.35
2023-02-07T07:56:33.938Z,-2.49
2023-02-07T07:57:34.451Z,-2.4
2023-02-07T07:58:34.561Z,-2.44
2023-02-07T07:59:35.078Z,-2.43
2023-02-07T08:00:35.295Z,-2.44
2023-02-07T08:01:35.811Z,-2.48
2023-02-07T08:02:36.042Z,-2.46
2023-02-07T08:03:36.403Z,-2.48
2023-02-07T08:04:36.767Z,-2.46
2023-02-07T08:05:37.280Z,-2.39
2023-02-07T08:06:37.397Z,-2.4
2023-02-07T08:07:37.893Z,-2.39
2023-02-07T08:08:38.419Z,-2.35
2023-02-07T08:09:38.218Z,-2.33
2023-02-07T08:10:39.479Z,-2.51
2023-02-07T08:11:39.068Z,-2.5
2023-02-07T08:12:39.490Z,-2.46
2023-02-07T08:13:39.776Z,-2.48
2023-02-07T08:14:40.015Z,-2.5
2023-02-07T08:15:40.200Z,-2.42
2023-02-07T08:16:40.518Z,-2.36
2023-02-07T08:17:41.144Z,-2.34
2023-02-07T08:18:41.356Z,-2.25
2023-02-07T08:19:41.665Z,-2.18
2023-02-07T08:20:41.984Z,-2.2
2023-02-07T08:21:44.680Z,-2.07
2023-02-07T08:22:42.817Z,-2.06
2023-02-07T08:23:43.023Z,-2.12
2023-02-07T08:24:43.256Z,-2.29
2023-02-07T08:25:44.073Z,-2.21
2023-02-07T08:26:44.196Z,-2.11
2023-02-07T08:27:44.794Z,-2.24
2023-02-07T08:28:44.498Z,-2.35
2023-02-07T08:29:45.935Z,-2.21
2023-02-07T08:30:45.818Z,-2.14
2023-02-07T08:31:45.627Z,-2.12
2023-02-07T08:32:45.949Z,-2
2023-02-07T08:33:46.162Z,-1.89
2023-02-07T08:34:46.793Z,-1.78
2023-02-07T08:35:49.889Z,-1.81
2023-02-07T08:36:47.414Z,-1.84
2023-02-07T08:37:47.826Z,-1.85
2023-02-07T08:38:47.841Z,-1.82
2023-02-07T08:39:48.357Z,-1.84
2023-02-07T08:40:48.667Z,-2.18
2023-02-07T08:41:48.897Z,-2.31
2023-02-07T08:42:49.924Z,-2.25
2023-02-07T08:43:49.710Z,-2.13
2023-02-07T08:44:51.062Z,-1.98
2023-02-07T08:45:50.526Z,-1.76
2023-02-07T08:46:50.659Z,-1.73
2023-02-07T08:47:51.181Z,-1.71
2023-02-07T08:48:51.798Z,-1.77
2023-02-07T08:49:51.592Z,-1.66
2023-02-07T08:50:51.921Z,-1.68
2023-02-07T08:51:52.641Z,-1.91
2023-02-07T08:52:52.853Z,-1.79
2023-02-07T08:53:54.053Z,-1.79
2023-02-07T08:54:53.482Z,-1.95
2023-02-07T08:55:55.120Z,-1.77
2023-02-07T08:56:54.000Z,-1.77
2023-02-07T08:57:54.423Z,-1.85
2023-02-07T08:58:54.720Z,-1.77
2023-02-07T08:59:55.149Z,-1.9
2023-02-07T09:00:55.393Z,-2.04
2023-02-07T09:01:55.618Z,-1.99
2023-02-07T09:02:56.090Z,-1.96
2023-02-07T09:03:56.910Z,-2
2023-02-07T09:04:56.609Z,-2.05
2023-02-07T09:06:00.207Z,-2.04
2023-02-07T09:06:57.586Z,-1.94
2023-02-07T09:07:58.992Z,-1.97
2023-02-07T09:09:01.156Z,-2.02
2023-02-07T09:09:58.600Z,-1.89
2023-02-07T09:10:59.056Z,-2.07
2023-02-07T09:11:59.223Z,-2.16
2023-02-07T09:12:59.861Z,-2.04
2023-02-07T09:13:59.950Z,-2
2023-02-07T09:15:00.159Z,-1.97
2023-02-07T09:16:00.580Z,-1.97
2023-02-07T09:17:01.033Z,-2.01
2023-02-07T09:18:01.334Z,-2.01
2023-02-07T09:19:01.624Z,-1.98
2023-02-07T09:20:02.238Z,-1.92
2023-02-07T09:21:02.366Z,-1.84
2023-02-07T09:22:03.597Z,-1.95
2023-02-07T09:23:03.187Z,-2.13
2023-02-07T09:24:04.009Z,-2.3
2023-02-07T09:25:04.223Z,-2.4
2023-02-07T09:26:06.035Z,-2.39
2023-02-07T09:27:04.345Z,-2.27
2023-02-07T09:28:07.446Z,-2.1
2023-02-07T09:29:11.326Z,-2.04
2023-02-07T09:30:10.717Z,-2.04
2023-02-07T09:31:13.639Z,-2.02
2023-02-07T09:32:11.135Z,-2.01
2023-02-07T09:33:12.878Z,-2.13
2023-02-07T09:34:11.766Z,-2.05
2023-02-07T09:35:11.972Z,-1.93
2023-02-07T09:37:12.503Z,-1.99
2023-02-07T09:38:15.381Z,-1.98
2023-02-07T09:39:13.241Z,-2.12
2023-02-07T09:40:17.640Z,-2.09
2023-02-07T09:45:33.957Z,-1.71
2023-02-07T09:46:33.075Z,-1.72
2023-02-07T09:47:33.137Z,-1.8
2023-02-07T09:50:42.008Z,-1.71
2023-02-07T09:51:40.964Z,-1.74
2023-02-07T09:56:59.116Z,-1.87
2023-02-07T10:01:07.045Z,-1.6
2023-02-07T10:05:18.428Z,-1.83
2023-02-07T10:07:14.950Z,-1.6
2023-02-07T10:08:18.347Z,-1.59
2023-02-07T10:09:18.243Z,-1.65
2023-02-07T10:10:18.251Z,-1.59
2023-02-07T10:26:58.310Z,-1.74
2023-02-07T10:31:11.894Z,-1.6
2023-02-07T10:36:15.345Z,-1.73
2023-02-07T10:42:29.233Z,-1.39
2023-02-07T10:43:35.001Z,-1.47
2023-02-07T10:44:32.413Z,-1.39
2023-02-07T10:45:33.449Z,-1.27
2023-02-07T10:46:35.034Z,-1.26
2023-02-07T10:47:40.209Z,-1.35
2023-02-07T10:48:38.380Z,-1.41
2023-02-07T10:49:42.877Z,-1.59
2023-02-07T10:50:40.546Z,-1.72
2023-02-07T10:51:43.001Z,-1.59
2023-02-07T10:55:49.885Z,-1.27
2023-02-07T10:56:51.547Z,-1.23
2023-02-07T10:58:02.570Z,-1.18
2023-02-07T10:58:49.713Z,-1.2
2023-02-07T11:00:52.092Z,-1.32
2023-02-07T11:01:54.354Z,-1.32
2023-02-07T11:02:54.331Z,-1.31
2023-02-07T11:03:52.816Z,-1.16
2023-02-07T11:04:52.404Z,-1.05
2023-02-07T11:05:58.765Z,-1.08
2023-02-07T11:08:05.209Z,-1.35
2023-02-07T11:12:18.562Z,-1.16
2023-02-07T11:13:29.193Z,-1.09
2023-02-07T11:14:20.129Z,-0.87
2023-02-07T11:15:20.553Z,-1.02
2023-02-07T11:16:20.244Z,-1.12
2023-02-07T11:17:21.671Z,-1.21
2023-02-07T11:19:27.017Z,-1.03
2023-02-07T11:22:29.376Z,-0.69
2023-02-07T11:23:30.108Z,-0.73
2023-02-07T11:26:36.188Z,-0.59
2023-02-07T11:27:41.803Z,-0.66
2023-02-07T11:28:34.235Z,-0.99
2023-02-07T11:29:45.106Z,-1.04
2023-02-07T11:30:37.759Z,-1.28
2023-02-07T11:31:38.942Z,-1.08
2023-02-07T11:32:39.077Z,-0.92
2023-02-07T11:33:38.783Z,-0.83
2023-02-07T11:36:46.149Z,-0.58
2023-02-07T11:38:50.887Z,-1.15
2023-02-07T11:39:50.401Z,-1.24
2023-02-07T11:40:49.187Z,-1.49
2023-02-07T11:41:59.830Z,-1.36
2023-02-07T11:43:01.889Z,-1.16
2023-02-07T11:44:00.305Z,-1.09
2023-02-07T11:45:03.021Z,-1.05
2023-02-07T11:46:07.170Z,-0.94
2023-02-07T11:47:05.398Z,-1.17
2023-02-07T11:48:06.523Z,-1.34
2023-02-07T11:49:18.719Z,-1.4
2023-02-07T11:50:08.368Z,-1.66
2023-02-07T11:51:09.818Z,-1.47
2023-02-07T11:52:08.801Z,-1.45
2023-02-07T11:53:15.871Z,-1.53
2023-02-07T11:54:09.847Z,-1.55
2023-02-07T11:55:18.035Z,-1.5
2023-02-07T11:57:16.215Z,-1.39
2023-02-07T12:02:26.323Z,-1.43
2023-02-07T12:03:28.451Z,-1.35
2023-02-07T12:08:36.146Z,-1.2
2023-02-07T12:10:42.304Z,-1.29
2023-02-07T12:11:42.412Z,-1.34
2023-02-07T12:12:45.489Z,-1.23
2023-02-07T12:16:56.275Z,-1.65
2023-02-07T12:20:06.140Z,-1.65
2023-02-07T12:24:24.998Z,-1.57
2023-02-07T12:25:30.002Z,-1.68
2023-02-07T12:27:35.493Z,-1.58
2023-02-07T12:28:37.927Z,-1.77
2023-02-07T12:30:41.658Z,-1.55
2023-02-07T12:36:53.542Z,-1.44
2023-02-07T12:37:54.268Z,-1.39
2023-02-07T12:38:53.685Z,-1.46
2023-02-07T12:45:03.536Z,-1.6
2023-02-07T12:56:45.894Z,-1.65
2023-02-07T13:22:59.792Z,-1.6
2023-02-07T13:24:02.861Z,-1.53
2023-02-07T13:25:02.673Z,-1.74
2023-02-07T13:26:09.094Z,-1.69
2023-02-07T13:27:06.159Z,-1.7
2023-02-07T13:29:13.133Z,-1.68
2023-02-07T13:30:18.670Z,-1.76
2023-02-07T13:32:21.457Z,-1.76
2023-02-07T13:34:28.023Z,-1.77
2023-02-07T13:35:29.966Z,-1.81
2023-02-07T13:52:10.932Z,-1.81
2023-02-07T13:56:12.917Z,-1.96
2023-02-07T14:00:25.544Z,-2.02
2023-02-07T14:01:30.272Z,-2.01
2023-02-07T14:02:28.315Z,-2.11
2023-02-07T14:03:34.485Z,-2.18
2023-02-07T14:05:41.263Z,-2.19
2023-02-07T14:09:50.271Z,-2.38
2023-02-07T14:10:56.432Z,-2.33
2023-02-07T14:12:57.460Z,-2.39
2023-02-07T14:16:13.544Z,-2.33
2023-02-07T14:17:15.622Z,-2.32
2023-02-07T14:24:31.859Z,-2.41
2023-02-07T14:27:42.812Z,-2.32
2023-02-07T14:28:40.379Z,-2.38
2023-02-07T14:29:51.224Z,-2.37
2023-02-07T14:36:54.877Z,-2.5
2023-02-07T14:45:19.918Z,-2.58
2023-02-07T14:46:18.302Z,-2.65
2023-02-07T14:47:28.025Z,-2.72
2023-02-07T14:50:30.768Z,-2.74
2023-02-07T14:52:34.660Z,-2.66
2023-02-07T14:53:32.043Z,-2.73
2023-02-07T15:00:51.029Z,-2.79
2023-02-07T15:01:48.647Z,-2.76
2023-02-07T15:04:53.921Z,-2.87
2023-02-07T15:06:00.102Z,-2.89
2023-02-07T15:06:59.162Z,-2.88
2023-02-07T15:09:02.773Z,-2.85
2023-02-07T15:10:14.659Z,-2.91
2023-02-07T15:11:13.839Z,-2.93
2023-02-07T15:12:26.807Z,-2.85
2023-02-07T15:16:22.828Z,-3.02
2023-02-07T15:17:21.859Z,-3.04
2023-02-07T15:18:22.502Z,-2.96
2023-02-07T15:20:28.636Z,-2.96
2023-02-07T15:21:39.532Z,-2.97
2023-02-07T15:22:29.167Z,-2.99
2023-02-07T15:23:30.381Z,-2.99
2023-02-07T15:24:49.615Z,-2.94
2023-02-07T15:25:31.822Z,-2.97
2023-02-07T15:26:29.593Z,-2.92
2023-02-07T15:27:30.110Z,-3.02
2023-02-07T15:28:32.146Z,-3.05
2023-02-07T15:29:32.889Z,-3.04
2023-02-07T15:30:31.744Z,-3.04
2023-02-07T15:31:30.921Z,-3.08
2023-02-07T15:32:35.369Z,-3.11
2023-02-07T15:33:38.243Z,-3.18
2023-02-07T15:34:35.492Z,-3.19
2023-02-07T15:35:39.074Z,-3.15
2023-02-07T15:36:39.191Z,-3.1
2023-02-07T15:37:36.843Z,-3.15
2023-02-07T15:38:36.959Z,-3.13
2023-02-07T15:39:37.581Z,-3.15
2023-02-07T15:40:37.813Z,-3.14
2023-02-07T15:41:37.987Z,-3.18
2023-02-07T15:42:38.510Z,-3.17
2023-02-07T15:48:55.269Z,-3.13
2023-02-07T15:50:59.869Z,-3.05
2023-02-07T15:54:03.160Z,-3.14
2023-02-07T15:56:08.600Z,-3.06
2023-02-07T15:59:19.472Z,-3.06
2023-02-07T16:01:26.492Z,-3.07
2023-02-07T16:02:30.005Z,-3.04
2023-02-07T16:04:31.572Z,-3.12
2023-02-07T16:06:31.398Z,-3.03
2023-02-07T16:07:30.783Z,-3.04
2023-02-07T16:08:38.791Z,-3.03
2023-02-07T16:10:38.802Z,-3.1
2023-02-07T16:11:39.322Z,-3.11
2023-02-07T16:14:43.214Z,-3.01
2023-02-07T16:17:43.661Z,-3.09
2023-02-07T16:18:47.968Z,-3.07
2023-02-07T16:19:49.607Z,-3.05
2023-02-07T16:20:47.163Z,-3.05
2023-02-07T16:22:49.016Z,-3.12
2023-02-07T16:23:52.610Z,-3.14
2023-02-07T16:24:51.862Z,-3.1
2023-02-07T16:25:50.167Z,-3.06
2023-02-07T16:26:52.029Z,-3.13
2023-02-07T16:27:52.579Z,-3.15
2023-02-07T16:28:51.531Z,-3.08
2023-02-07T16:29:51.795Z,-3.05
2023-02-07T16:30:52.089Z,-3.04
2023-02-07T16:31:53.637Z,-3.04
2023-02-07T16:32:52.670Z,-3.03
2023-02-07T16:33:52.883Z,-3.07
2023-02-07T16:34:59.600Z,-3.07
2023-02-07T16:35:57.300Z,-3.08
2023-02-07T16:36:57.602Z,-3.06
2023-02-07T16:37:58.043Z,-3.05
2023-02-07T16:38:58.263Z,-3.04
2023-02-07T16:39:58.678Z,-3.07
2023-02-07T16:40:59.598Z,-3.1
2023-02-07T16:42:07.679Z,-3.1
2023-02-07T16:43:04.310Z,-3.1
2023-02-07T16:44:05.156Z,-3.11
2023-02-07T16:45:02.379Z,-3.09
2023-02-07T16:46:03.427Z,-3.09
2023-02-07T16:47:03.836Z,-3.14
2023-02-07T16:48:03.711Z,-3.13
2023-02-07T16:51:11.027Z,-3.13
2023-02-07T16:52:11.641Z,-3.09
2023-02-07T16:53:11.552Z,-3.13
2023-02-07T16:54:12.175Z,-3.15
2023-02-07T16:55:12.384Z,-3.15
2023-02-07T16:57:13.527Z,-3.17
2023-02-07T16:59:19.311Z,-3.18
2023-02-07T17:00:19.993Z,-3.11
2023-02-07T17:01:21.908Z,-3.14
2023-02-07T17:02:19.729Z,-3.17
2023-02-07T17:03:20.017Z,-3.21
2023-02-07T17:04:21.666Z,-3.2
2023-02-07T17:05:22.605Z,-3.16
2023-02-07T17:06:23.400Z,-3.11
2023-02-07T17:07:21.393Z,-3.05
2023-02-07T17:08:23.430Z,-3.07
2023-02-07T17:09:25.474Z,-3.1
2023-02-07T17:10:28.884Z,-3.09
2023-02-07T17:11:26.542Z,-3.08
2023-02-07T17:12:26.643Z,-3.16
2023-02-07T17:13:27.048Z,-3.17
2023-02-07T17:14:28.683Z,-3.16
2023-02-07T17:15:27.563Z,-3.16
2023-02-07T17:16:28.316Z,-3.18
2023-02-07T17:17:28.803Z,-3.2
2023-02-07T17:18:30.174Z,-3.18
2023-02-07T17:19:29.127Z,-3.2
2023-02-07T17:20:33.135Z,-3.21
2023-02-07T17:21:30.591Z,-3.18
2023-02-07T17:22:30.774Z,-3.21
2023-02-07T17:23:31.203Z,-3.28
2023-02-07T17:24:31.619Z,-3.22
2023-02-07T17:25:41.824Z,-3.19
2023-02-07T17:26:34.688Z,-3.19
2023-02-07T17:27:35.033Z,-3.16
2023-02-07T17:28:34.821Z,-3.19
2023-02-07T17:29:35.130Z,-3.17
2023-02-07T17:30:39.815Z,-3.17
2023-02-07T17:31:37.515Z,-3.18
2023-02-07T17:32:37.819Z,-3.17
2023-02-07T17:33:41.320Z,-3.13
2023-02-07T17:34:38.861Z,-3.16
2023-02-07T17:35:39.491Z,-3.11
2023-02-07T17:36:43.792Z,-3.07
2023-02-07T17:37:41.516Z,-3.06
2023-02-07T17:38:42.482Z,-3.09
2023-02-07T17:39:42.169Z,-3.09
2023-02-07T17:40:42.789Z,-3.07
2023-02-07T17:41:42.806Z,-3.03
2023-02-07T17:42:43.312Z,-3.08
2023-02-07T17:43:43.417Z,-3.11
2023-02-07T17:44:43.638Z,-3.12
2023-02-07T17:45:44.239Z,-3.1
2023-02-07T17:46:44.674Z,-3.07
2023-02-07T17:47:44.696Z,-3.1
2023-02-07T17:48:46.338Z,-3.17
2023-02-07T17:49:46.228Z,-3.16
2023-02-07T17:50:45.614Z,-3.15
2023-02-07T17:51:45.984Z,-3.13
2023-02-07T17:52:47.580Z,-3.16
2023-02-07T17:53:47.065Z,-3.13
2023-02-07T17:54:46.972Z,-3.16
2023-02-07T17:55:48.209Z,-3.07
2023-02-07T17:56:48.938Z,-3.08
2023-02-07T17:57:48.035Z,-3.18
2023-02-07T17:58:48.339Z,-3.13
2023-02-07T17:59:48.649Z,-3.08
2023-02-07T18:00:49.339Z,-3.09
2023-02-07T18:01:49.276Z,-3.11
2023-02-07T18:02:49.905Z,-3.05
2023-02-07T18:03:52.049Z,-3.13
2023-02-07T18:04:50.423Z,-3.11
2023-02-07T18:05:51.251Z,-3.12
2023-02-07T18:06:51.154Z,-3.1
2023-02-07T18:07:52.805Z,-3.04
2023-02-07T18:08:52.160Z,-3.07
2023-02-07T18:09:51.985Z,-3.04
2023-02-07T18:10:52.404Z,-3.06
2023-02-07T18:11:52.923Z,-3.09
2023-02-07T18:12:53.860Z,-3.08
2023-02-07T18:13:53.458Z,-3.03
2023-02-07T18:14:55.705Z,-3.01
2023-02-07T18:15:54.026Z,-3.03
2023-02-07T18:16:54.285Z,-3.08
2023-02-07T18:17:55.325Z,-3.14
2023-02-07T18:18:56.465Z,-3.15
2023-02-07T18:19:56.238Z,-3.17
2023-02-07T18:20:55.857Z,-3.15
2023-02-07T18:21:55.961Z,-3.1
2023-02-07T18:22:57.737Z,-3.16
2023-02-07T18:23:56.998Z,-3.16
2023-02-07T18:24:59.870Z,-3.17
2023-02-07T18:25:57.527Z,-3.11